Time,TemperatureF,DewpointF,PressureIn,WindDirection,WindDirectionDegrees,WindSpeedMPH,WindSpeedGustMPH,Humidity,HourlyPrecipIn,Conditions,Clouds,dailyrainin,SoftwareType,DateUTC
2013-01-23 01:00:00,29.0,17.3,30.23,North,1,0.0,0.0,61,0.00,OVC,,0.00,WeatherDisplay:10.37,2013-01-23 06:00:00,
2013-01-23 02:00:00,28.9,17.1,30.20,North,1,0.0,0.0,61,0.00,OVC,,0.00,WeatherDisplay:10.37,2013-01-23 07:00:00,
2013-01-23 03:00:00,27.5,15.8,30.19,North,1,0.0,0.0,61,0.00,OVC,,0.00,WeatherDisplay:10.37,2013-01-23 08:00:00,
2013-01-23 04:00:00,26.6,14.9,30.18,North,2,0.0,0.0,61,0.00,OVC,,0.00,WeatherDisplay:10.37,2013-01-23 09:00:00,
2013-01-23 05:00:00,26.6,15.0,30.17,North,1,0.0,0.0,61,0.00,OVC,,0.00,WeatherDisplay:10.37,2013-01-23 10:00:00,
2013-01-23 06:00:00,27.3,15.6,30.18,North,1,0.0,0.0,61,0.00,OVC,,0.00,WeatherDisplay:10.37,2013-01-23 11:00:00,
2013-01-23 07:00:00,27.8,16.1,30.20,North,1,0.0,0.0,61,0.00,OVC,,0.00,WeatherDisplay:10.37,2013-01-23 12:00:00,
2013-01-23 08:00:00,27.7,16.0,30.21,North,1,0.0,0.0,61,0.00,OVC,,0.00,WeatherDisplay:10.37,2013-01-23 13:00:00,
2013-01-23 09:00:00,28.0,16.2,30.21,North,1,0.0,0.0,61,0.00,OVC,,0.00,WeatherDisplay:10.37,2013-01-23 14:00:00,
2013-01-23 10:00:00,29.1,17.3,30.22,North,3,0.0,0.0,61,0.00,SCT,,0.00,WeatherDisplay:10.37,2013-01-23 15:00:00,
2013-01-23 11:00:00,31.2,19.3,30.22,North,1,0.0,0.0,61,0.00,CLR,,0.00,WeatherDisplay:10.37,2013-01-23 16:00:00,
2013-01-23 12:00:00,33.7,21.6,30.19,North,1,0.0,0.0,61,0.00,CLR,,0.00,WeatherDisplay:10.37,2013-01-23 17:00:00,
2013-01-23 13:00:00,36.8,24.6,30.14,North,0,0.0,0.0,61,0.00,CLR,,0.00,WeatherDisplay:10.37,2013-01-23 18:00:00,
2013-01-23 14:00:00,41.3,28.8,30.11,North,1,0.0,0.0,61,0.00,CLR,,0.00,WeatherDisplay:10.37,2013-01-23 19:00:00,
2013-01-23 15:00:00,42.6,30.1,30.10,North,1,0.0,0.0,61,0.00,CLR,,0.00,WeatherDisplay:10.37,2013-01-23 20:00:00,
2013-01-23 16:00:00,43.6,31.0,30.08,North,2,0.0,0.0,61,0.00,CLR,,0.00,WeatherDisplay:10.37,2013-01-23 21:00:00,
2013-01-23 17:00:00,44.5,31.8,30.08,North,1,0.0,0.0,61,0.00,CLR,,0.00,WeatherDisplay:10.37,2013-01-23 22:00:00,
2013-01-23 18:00:00,44.2,31.6,30.08,North,1,0.0,0.0,61,0.00,CLR,,0.00,WeatherDisplay:10.37,2013-01-23 23:00:00,
2013-01-23 19:00:00,40.9,28.5,30.09,North,2,0.0,0.0,61,0.00,CLR,,0.00,WeatherDisplay:10.37,2013-01-24 00:00:00,
2013-01-23 20:00:00,36.2,24.0,30.08,North,1,0.0,0.0,61,0.00,CLR,,0.00,WeatherDisplay:10.37,2013-01-24 01:00:00,
2013-01-23 21:00:00,33.3,21.3,30.09,North,1,0.0,0.0,61,0.00,CLR,,0.00,WeatherDisplay:10.37,2013-01-24 02:00:00,
2013-01-23 22:00:00,30.7,18.8,30.08,North,2,0.0,0.0,61,0.00,CLR,,0.00,WeatherDisplay:10.37,2013-01-24 03:00:00,
2013-01-23 23:00:00,29.0,17.3,30.07,North,1,0.0,0.0,61,0.00,SCT,,0.00,WeatherDisplay:10.37,2013-01-24 04:00:00,